Time;durP1;ratioP1;P1;durP2;ratioP2;P2;SDS_P1;SDS_P2;PMS_P1;PMS_P2;Temp;Humidity;BMP_temperature;BMP_pressure;BME280_temperature;BME280_humidity;BME280_pressure;Samples;Min_cycle;Max_cycle;Signal;HPM_P1;HPM_P2
2022/01/21 00:01:04;;;;;;;6.93;1.50;;;1.50;99.90;;;;;;5065591;28;20204;-78
2022/01/21 00:03:29;;;;;;;5.27;1.33;;;1.50;99.90;;;;;;5052127;28;20201;-78
2022/01/21 00:05:55;;;;;;;7.67;1.57;;;1.50;99.90;;;;;;5051591;28;20627;-78
2022/01/21 00:08:21;;;;;;;9.57;1.30;;;1.50;99.90;;;;;;5051504;28;20176;-78
2022/01/21 00:10:46;;;;;;;6.50;1.63;;;1.50;99.90;;;;;;5051903;28;20351;-78
2022/01/21 00:13:21;;;;;;;12.07;2.30;;;1.40;99.90;;;;;;5052362;28;20192;-78
2022/01/21 00:15:46;;;;;;;8.03;1.30;;;1.40;99.90;;;;;;5069732;28;20165;-78
2022/01/21 00:18:13;;;;;;;7.60;1.93;;;1.30;99.90;;;;;;5072631;28;20305;-78
2022/01/21 00:31:35;;;;;;;11.13;1.70;;;1.30;99.90;;;;;;5072427;28;20204;-78
2022/01/21 00:34:00;;;;;;;13.67;1.50;;;1.30;99.90;;;;;;5090095;28;20171;-78
2022/01/21 00:36:26;;;;;;;8.97;1.73;;;1.30;99.90;;;;;;5071316;28;20258;-78
2022/01/21 00:38:54;;;;;;;11.83;1.40;;;1.30;99.90;;;;;;5070249;28;20172;-78
2022/01/21 00:41:24;;;;;;;7.70;1.77;;;1.30;99.90;;;;;;5071262;28;20182;-78
2022/01/21 00:43:50;;;;;;;8.63;1.83;;;1.30;99.90;;;;;;5072278;28;20226;-78
2022/01/21 00:46:15;;;;;;;6.50;1.53;;;1.30;99.90;;;;;;5071203;28;20251;-78
2022/01/21 00:48:41;;;;;;;13.43;1.60;;;1.30;99.90;;;;;;5070243;28;20199;-78
2022/01/21 00:51:07;;;;;;;5.20;1.60;;;1.40;99.90;;;;;;5070642;28;20295;-78
2022/01/21 00:53:33;;;;;;;13.40;2.00;;;1.40;99.90;;;;;;5070965;28;20190;-78
2022/01/21 00:55:58;;;;;;;11.70;2.13;;;1.40;99.90;;;;;;5070859;28;20207;-78
2022/01/21 00:58:24;;;;;;;6.37;1.70;;;1.40;99.90;;;;;;5069779;28;20183;-78
2022/01/21 01:00:50;;;;;;;5.93;1.60;;;1.50;99.90;;;;;;5070847;28;20200;-78
2022/01/21 01:03:19;;;;;;;7.77;1.53;;;1.50;99.90;;;;;;5067677;28;20214;-78
2022/01/21 01:05:49;;;;;;;8.07;1.30;;;1.40;99.90;;;;;;5050492;28;20177;-78
2022/01/21 01:08:15;;;;;;;9.07;1.23;;;1.50;99.90;;;;;;5062424;28;20501;-78
2022/01/21 01:10:59;;;;;;;8.40;1.50;;;1.50;99.90;;;;;;5071139;28;20197;-78
2022/01/21 01:21:29;;;;;;;4.17;1.20;;;1.50;99.90;;;;;;5057247;28;20272;-78
2022/01/21 01:29:10;;;;;;;8.10;1.37;;;1.40;99.90;;;;;;5051250;28;20212;-78
2022/01/21 01:31:36;;;;;;;12.80;1.57;;;1.40;99.90;;;;;;5063570;28;20197;-78
2022/01/21 01:34:03;;;;;;;8.33;1.50;;;1.40;99.90;;;;;;5071561;28;20259;-78
2022/01/21 01:36:29;;;;;;;6.90;1.80;;;1.40;99.90;;;;;;5061134;28;20181;-79
2022/01/21 01:41:28;;;;;;;6.07;1.30;;;1.40;99.90;;;;;;5061126;28;20170;-79
2022/01/21 01:51:50;;;;;;;6.30;1.23;;;1.40;99.90;;;;;;5066500;28;20180;-79
2022/01/21 01:54:17;;;;;;;5.40;1.60;;;1.40;99.90;;;;;;5064849;28;20283;-79
2022/01/21 01:56:47;;;;;;;8.47;1.10;;;1.40;99.90;;;;;;5066293;28;20632;-79
2022/01/21 01:59:13;;;;;;;5.73;1.10;;;1.40;99.90;;;;;;5087889;28;20202;-78
2022/01/21 02:01:38;;;;;;;7.10;1.30;;;1.40;99.90;;;;;;5090365;28;20181;-78
2022/01/21 02:04:04;;;;;;;11.43;2.53;;;1.40;99.90;;;;;;5081392;28;20191;-79
2022/01/21 02:06:30;;;;;;;3.70;0.97;;;1.30;99.90;;;;;;5075278;28;20171;-79
2022/01/21 02:08:56;;;;;;;6.47;1.23;;;1.40;99.90;;;;;;5074673;28;20202;-79
2022/01/21 02:11:22;;;;;;;6.50;1.03;;;1.40;99.90;;;;;;5086552;28;20287;-79
2022/01/21 02:13:55;;;;;;;7.40;1.50;;;1.40;99.90;;;;;;5062451;28;20194;-79
2022/01/21 02:21:43;;;;;;;5.07;1.10;;;1.40;99.90;;;;;;5056382;28;20211;-79
2022/01/21 02:24:22;;;;;;;4.17;1.20;;;1.40;99.90;;;;;;5061417;28;20193;-79
2022/01/21 02:26:49;;;;;;;8.93;2.00;;;1.40;99.90;;;;;;5063194;28;20185;-76
2022/01/21 02:29:26;;;;;;;4.90;1.10;;;1.40;99.90;;;;;;5049908;28;20199;-77
2022/01/21 02:31:52;;;;;;;4.57;1.00;;;1.50;99.90;;;;;;5064897;28;20187;-77
2022/01/21 02:34:18;;;;;;;2.17;0.70;;;1.50;99.90;;;;;;5069668;28;20189;-77
2022/01/21 02:36:44;;;;;;;4.03;0.70;;;1.50;99.90;;;;;;5068871;28;20183;-76
2022/01/21 02:39:09;;;;;;;2.57;0.90;;;1.50;99.90;;;;;;5064479;28;20289;-76
2022/01/21 02:41:35;;;;;;;2.47;0.93;;;1.50;99.90;;;;;;5076162;28;20175;-76
2022/01/21 02:44:01;;;;;;;6.10;1.37;;;1.50;99.90;;;;;;5087872;28;20199;-77
2022/01/21 02:46:27;;;;;;;5.80;1.00;;;1.50;99.90;;;;;;5067455;28;20198;-77
2022/01/21 02:48:53;;;;;;;6.37;1.20;;;1.50;99.90;;;;;;5056005;28;20267;-77
2022/01/21 02:51:19;;;;;;;5.23;0.83;;;1.50;99.90;;;;;;5057211;28;20320;-77
2022/01/21 02:56:16;;;;;;;6.27;1.13;;;1.50;99.90;;;;;;5071976;28;20179;-77
2022/01/21 02:58:43;;;;;;;1.30;0.70;;;1.50;99.90;;;;;;5069096;28;20191;-78
2022/01/21 03:01:09;;;;;;;3.53;0.80;;;1.50;99.90;;;;;;5074370;28;20240;-79
2022/01/21 03:03:34;;;;;;;7.60;1.23;;;1.50;99.90;;;;;;5056691;28;20211;-79
2022/01/21 03:06:01;;;;;;;5.20;1.10;;;1.40;99.90;;;;;;5075492;28;20281;-79
2022/01/21 03:08:27;;;;;;;4.77;0.90;;;1.50;99.90;;;;;;5063267;28;20172;-79
2022/01/21 03:10:53;;;;;;;4.83;1.37;;;1.50;99.90;;;;;;5075526;28;20333;-79
2022/01/21 03:13:22;;;;;;;4.63;1.00;;;1.50;99.90;;;;;;5073521;28;20615;-79
2022/01/21 03:15:49;;;;;;;3.87;0.80;;;1.50;99.90;;;;;;5068003;28;20209;-79
2022/01/21 03:18:15;;;;;;;3.33;0.90;;;1.50;99.90;;;;;;5060896;28;20177;-77
2022/01/21 03:20:41;;;;;;;5.57;1.20;;;1.50;99.90;;;;;;5060918;28;20211;-76
2022/01/21 03:23:08;;;;;;;4.10;1.13;;;1.50;99.90;;;;;;5072303;28;20206;-76
2022/01/21 03:25:34;;;;;;;3.33;0.87;;;1.60;99.90;;;;;;5052888;28;20179;-77
2022/01/21 03:28:00;;;;;;;7.03;1.30;;;1.50;99.90;;;;;;5057718;28;20232;-77
2022/01/21 03:30:26;;;;;;;3.60;1.00;;;1.50;99.90;;;;;;5069769;28;20194;-76
2022/01/21 03:32:51;;;;;;;2.97;0.80;;;1.50;99.90;;;;;;5075421;28;20544;-76
2022/01/21 03:35:17;;;;;;;6.60;1.17;;;1.60;99.90;;;;;;5068140;28;20193;-76
2022/01/21 03:37:43;;;;;;;4.80;0.93;;;1.60;99.90;;;;;;5059260;28;20184;-76
2022/01/21 03:40:09;;;;;;;6.00;0.80;;;1.60;99.90;;;;;;5062556;28;20211;-76
2022/01/21 03:42:35;;;;;;;5.43;0.80;;;1.60;99.90;;;;;;5072509;28;20230;-76
2022/01/21 03:45:02;;;;;;;8.97;1.33;;;1.60;99.90;;;;;;5075757;28;20174;-77
2022/01/21 03:47:27;;;;;;;6.57;1.20;;;1.60;99.90;;;;;;5073882;28;20193;-76
2022/01/21 03:49:56;;;;;;;2.50;0.70;;;1.60;99.90;;;;;;5067517;28;20266;-77
2022/01/21 03:52:22;;;;;;;9.87;1.20;;;1.70;99.90;;;;;;5065089;28;20225;-76
2022/01/21 03:54:48;;;;;;;5.83;1.10;;;1.70;99.90;;;;;;5072335;28;20195;-77
2022/01/21 03:57:13;;;;;;;5.20;1.07;;;1.60;99.90;;;;;;5066448;28;20183;-77
2022/01/21 03:59:39;;;;;;;9.20;1.33;;;1.60;99.90;;;;;;5052023;28;20284;-78
2022/01/21 04:02:06;;;;;;;3.40;1.17;;;1.60;99.90;;;;;;5072003;28;20203;-77
2022/01/21 04:04:32;;;;;;;6.07;1.30;;;1.60;99.90;;;;;;5075928;28;20177;-78
2022/01/21 04:06:58;;;;;;;7.97;1.23;;;1.60;99.90;;;;;;5082672;28;20184;-78
2022/01/21 04:09:24;;;;;;;5.97;1.10;;;1.60;99.90;;;;;;5070916;28;20200;-78
2022/01/21 04:11:50;;;;;;;8.97;1.20;;;1.60;99.90;;;;;;5072970;28;20172;-78
2022/01/21 04:14:16;;;;;;;5.10;1.50;;;1.60;99.90;;;;;;5071658;28;20183;-78
2022/01/21 04:16:41;;;;;;;8.43;1.37;;;1.60;99.90;;;;;;5061508;28;20534;-77
2022/01/21 04:19:07;;;;;;;7.00;1.17;;;1.60;99.90;;;;;;5051019;28;20184;-78
2022/01/21 04:21:33;;;;;;;4.83;1.03;;;1.60;99.90;;;;;;5051627;28;20191;-78
2022/01/21 04:23:59;;;;;;;6.50;1.60;;;1.50;99.90;;;;;;5051560;28;20656;-77
2022/01/21 04:26:25;;;;;;;8.27;1.10;;;1.50;99.90;;;;;;5055021;28;20192;-78
2022/01/21 04:28:51;;;;;;;4.57;1.10;;;1.50;99.90;;;;;;5050538;28;20193;-78
2022/01/21 04:31:16;;;;;;;5.70;1.30;;;1.50;99.90;;;;;;5050889;28;20196;-77
2022/01/21 04:33:42;;;;;;;9.37;1.30;;;1.50;99.90;;;;;;5057488;28;20190;-78
2022/01/21 04:36:08;;;;;;;5.20;1.13;;;1.50;99.90;;;;;;5071013;28;20194;-78
2022/01/21 04:38:34;;;;;;;5.63;1.00;;;1.50;99.90;;;;;;5070371;28;20709;-78
2022/01/21 04:41:24;;;;;;;6.60;1.53;;;1.50;99.90;;;;;;5071923;28;20199;-78
2022/01/21 04:47:17;;;;;;;5.47;1.20;;;1.50;99.90;;;;;;5052315;28;20181;-77
2022/01/21 04:49:39;;;;;;;4.90;1.00;;;1.50;99.90;;;;;;5053349;28;20200;-79
2022/01/21 04:52:05;;;;;;;6.90;1.30;;;1.50;99.90;;;;;;5072534;28;20184;-79
2022/01/21 04:54:35;;;;;;;8.27;1.30;;;1.50;99.90;;;;;;5066226;28;20268;-79
2022/01/21 04:57:02;;;;;;;4.60;1.20;;;1.50;99.90;;;;;;5070675;28;20223;-79
2022/01/21 04:59:28;;;;;;;7.87;1.27;;;1.50;99.90;;;;;;5051044;28;20202;-79
2022/01/21 05:01:54;;;;;;;9.97;1.40;;;1.50;99.90;;;;;;5067293;28;20175;-79
2022/01/21 05:04:21;;;;;;;7.37;1.37;;;1.50;99.90;;;;;;5094068;28;20183;-79
2022/01/21 05:06:49;;;;;;;7.17;1.20;;;1.50;99.90;;;;;;5093560;28;20162;-79
2022/01/21 05:09:16;;;;;;;5.00;1.43;;;1.60;99.90;;;;;;5091238;28;20188;-77
2022/01/21 05:11:43;;;;;;;4.43;1.80;;;1.60;99.90;;;;;;5091731;28;20258;-77
2022/01/21 05:16:39;;;;;;;5.83;1.00;;;1.60;99.90;;;;;;5052576;28;20176;-77
2022/01/21 05:19:13;;;;;;;3.07;1.33;;;1.60;99.90;;;;;;5049946;28;20172;-77
2022/01/21 05:21:39;;;;;;;7.17;1.50;;;1.50;99.90;;;;;;5067513;28;20223;-77
2022/01/21 05:24:06;;;;;;;5.37;1.07;;;1.60;99.90;;;;;;5070648;28;20220;-77
2022/01/21 05:26:37;;;;;;;6.03;2.00;;;1.60;99.90;;;;;;5070750;28;20293;-77
2022/01/21 05:29:04;;;;;;;4.47;1.00;;;1.60;99.90;;;;;;5070768;28;20198;-78
2022/01/21 05:31:30;;;;;;;8.10;1.50;;;1.60;99.90;;;;;;5064054;28;20195;-78
2022/01/21 05:33:55;;;;;;;4.13;1.10;;;1.60;99.90;;;;;;5071954;28;20235;-78
2022/01/21 05:36:21;;;;;;;5.80;1.17;;;1.60;99.90;;;;;;5072047;28;20543;-78
2022/01/21 05:38:46;;;;;;;4.67;1.07;;;1.60;99.90;;;;;;5070697;28;20193;-78
2022/01/21 05:41:13;;;;;;;6.57;1.40;;;1.60;99.90;;;;;;5071007;28;20264;-78
2022/01/21 05:43:45;;;;;;;6.20;1.20;;;1.60;99.90;;;;;;5070696;28;20209;-78
2022/01/21 05:46:26;;;;;;;6.83;1.30;;;1.60;99.90;;;;;;5071794;28;20512;-78
2022/01/21 05:48:51;;;;;;;5.00;1.00;;;1.60;99.90;;;;;;5070662;28;20220;-78
2022/01/21 05:51:18;;;;;;;7.57;1.10;;;1.70;99.90;;;;;;5065233;28;20182;-78
2022/01/21 05:53:43;;;;;;;5.33;1.37;;;1.70;99.90;;;;;;5070706;28;20196;-78
2022/01/21 05:56:09;;;;;;;4.43;1.30;;;1.70;99.90;;;;;;5070808;28;20184;-78
2022/01/21 05:58:35;;;;;;;5.93;1.80;;;1.70;99.90;;;;;;5068991;28;20184;-78
2022/01/21 06:01:00;;;;;;;9.13;1.50;;;1.70;99.90;;;;;;5070472;28;20204;-78
2022/01/21 06:03:26;;;;;;;8.80;1.50;;;1.70;99.90;;;;;;5062433;28;20233;-78
2022/01/21 06:05:52;;;;;;;8.07;1.10;;;1.80;99.90;;;;;;5063340;28;20204;-78
2022/01/21 06:08:19;;;;;;;4.20;1.00;;;1.80;99.90;;;;;;5051365;28;20657;-79
2022/01/21 06:10:44;;;;;;;6.53;1.17;;;1.80;99.90;;;;;;5067949;28;20207;-79
2022/01/21 06:13:14;;;;;;;5.30;0.97;;;1.80;99.90;;;;;;5071383;28;20184;-79
2022/01/21 06:15:40;;;;;;;6.63;1.30;;;1.70;99.90;;;;;;5065539;28;20204;-79
2022/01/21 06:18:06;;;;;;;5.00;1.33;;;1.80;99.90;;;;;;5050965;28;20637;-79
2022/01/21 06:20:31;;;;;;;6.87;1.20;;;1.80;99.90;;;;;;5052071;28;20204;-79
2022/01/21 06:22:57;;;;;;;7.83;1.30;;;1.80;99.90;;;;;;5064423;28;20207;-79
2022/01/21 06:25:22;;;;;;;8.40;1.30;;;1.80;99.90;;;;;;5071083;28;20177;-79
2022/01/21 06:27:48;;;;;;;3.77;1.20;;;1.80;99.90;;;;;;5072394;28;20548;-79
2022/01/21 06:30:14;;;;;;;7.60;1.33;;;1.80;99.90;;;;;;5070265;28;20191;-79
2022/01/21 06:32:40;;;;;;;5.90;1.20;;;1.80;99.90;;;;;;5074601;28;20706;-79
2022/01/21 06:35:07;;;;;;;4.57;0.87;;;1.80;99.90;;;;;;5075007;28;20541;-79
2022/01/21 06:37:33;;;;;;;4.60;0.90;;;1.80;99.90;;;;;;5064122;28;20234;-79
2022/01/21 06:39:58;;;;;;;4.00;0.90;;;1.80;99.90;;;;;;5054330;28;20209;-79
2022/01/21 06:42:26;;;;;;;10.80;1.27;;;1.80;99.90;;;;;;5054117;28;20204;-79
2022/01/21 06:44:52;;;;;;;7.30;1.20;;;1.90;99.90;;;;;;5076850;28;20174;-79
2022/01/21 06:47:18;;;;;;;3.73;0.67;;;1.90;99.90;;;;;;5073841;28;20186;-79
2022/01/21 06:49:45;;;;;;;4.30;0.90;;;1.90;99.90;;;;;;5073953;28;20197;-79
2022/01/21 06:52:11;;;;;;;6.07;1.30;;;1.90;99.90;;;;;;5057548;28;20181;-79
2022/01/21 06:54:36;;;;;;;5.63;0.90;;;2.00;99.90;;;;;;5057709;28;20196;-79
2022/01/21 06:57:02;;;;;;;3.83;0.90;;;2.00;99.90;;;;;;5053747;28;20188;-79
2022/01/21 06:59:28;;;;;;;4.93;1.13;;;2.00;99.90;;;;;;5053436;28;20210;-79
2022/01/21 07:01:53;;;;;;;4.80;0.90;;;2.00;99.90;;;;;;5051741;28;20243;-79
2022/01/21 07:04:19;;;;;;;5.33;1.20;;;2.00;99.90;;;;;;5065565;28;20314;-79
2022/01/21 07:06:44;;;;;;;6.70;1.50;;;2.00;99.90;;;;;;5071349;28;20176;-79
2022/01/21 07:09:11;;;;;;;6.80;1.10;;;2.00;99.90;;;;;;5062186;28;20178;-79
2022/01/21 07:11:36;;;;;;;3.27;1.13;;;2.00;99.90;;;;;;5058239;28;20173;-79
2022/01/21 07:14:02;;;;;;;4.03;0.90;;;2.00;99.90;;;;;;5075628;28;20172;-79
2022/01/21 07:16:27;;;;;;;3.27;1.10;;;2.00;99.90;;;;;;5068834;28;20180;-79
2022/01/21 07:18:53;;;;;;;2.70;0.83;;;2.00;99.90;;;;;;5077046;28;20213;-79
2022/01/21 07:21:19;;;;;;;3.50;1.13;;;2.10;99.90;;;;;;5074219;28;20173;-79
2022/01/21 07:23:44;;;;;;;5.33;0.83;;;2.10;99.90;;;;;;5072863;28;20201;-80
2022/01/21 07:26:12;;;;;;;4.20;1.00;;;2.00;99.90;;;;;;5054303;28;20168;-79
2022/01/21 07:28:38;;;;;;;3.23;1.07;;;2.00;99.90;;;;;;5053350;28;20223;-79
2022/01/21 07:31:03;;;;;;;7.67;1.20;;;2.00;99.90;;;;;;5053193;28;20219;-79
2022/01/21 07:33:29;;;;;;;2.70;0.87;;;2.10;99.90;;;;;;5065403;28;20548;-79
2022/01/21 07:35:55;;;;;;;8.53;1.50;;;2.10;99.90;;;;;;5071355;28;20193;-79
2022/01/21 07:38:20;;;;;;;5.63;1.00;;;2.00;99.90;;;;;;5066050;28;20196;-79
2022/01/21 07:40:46;;;;;;;5.77;1.53;;;2.00;99.90;;;;;;5062343;28;20196;-79
2022/01/21 07:43:12;;;;;;;6.53;1.00;;;2.00;99.90;;;;;;5066014;28;20204;-79
2022/01/21 07:45:38;;;;;;;9.83;1.90;;;2.00;99.90;;;;;;5082159;28;20193;-79
2022/01/21 07:48:05;;;;;;;2.83;0.80;;;2.00;99.90;;;;;;5052680;28;20197;-79
2022/01/21 07:50:33;;;;;;;2.63;1.10;;;2.10;99.90;;;;;;5052835;28;20198;-79
2022/01/21 07:52:59;;;;;;;4.70;1.20;;;2.10;99.90;;;;;;5059686;28;20718;-78
2022/01/21 07:55:25;;;;;;;5.83;1.10;;;2.10;99.90;;;;;;5058283;28;20180;-79
2022/01/21 07:57:51;;;;;;;5.10;1.00;;;2.10;99.90;;;;;;5072855;28;20184;-78
2022/01/21 08:00:17;;;;;;;3.37;0.90;;;2.10;99.90;;;;;;5068607;28;20201;-79
2022/01/21 08:02:43;;;;;;;5.37;0.90;;;2.10;99.90;;;;;;5062948;28;20206;-77
2022/01/21 08:05:10;;;;;;;6.27;1.40;;;2.10;99.90;;;;;;5052377;28;20187;-79
2022/01/21 08:07:36;;;;;;;9.80;0.80;;;2.20;99.90;;;;;;5049923;28;20166;-79
2022/01/21 08:10:02;;;;;;;6.77;1.47;;;2.30;99.90;;;;;;5058770;28;20245;-79
2022/01/21 08:12:31;;;;;;;7.37;1.30;;;2.20;99.90;;;;;;5079261;28;20184;-78
2022/01/21 08:14:56;;;;;;;5.37;1.30;;;2.20;99.90;;;;;;5077976;28;20184;-78
2022/01/21 08:17:23;;;;;;;3.57;0.90;;;2.20;99.90;;;;;;5066110;28;20581;-77
2022/01/21 08:19:49;;;;;;;6.23;1.13;;;2.30;99.90;;;;;;5062685;28;20711;-77
2022/01/21 08:22:28;;;;;;;4.20;0.93;;;2.30;99.90;;;;;;5074746;28;20203;-77
2022/01/21 08:24:54;;;;;;;3.20;0.90;;;2.30;99.90;;;;;;5085936;28;20167;-76
2022/01/21 08:27:20;;;;;;;6.50;1.07;;;2.40;99.90;;;;;;5074518;28;20181;-77
2022/01/21 08:29:46;;;;;;;6.47;1.17;;;2.40;99.90;;;;;;5077697;28;20267;-77
2022/01/21 08:32:12;;;;;;;3.87;0.90;;;2.40;99.90;;;;;;5079728;28;20189;-77
2022/01/21 08:34:38;;;;;;;1.70;0.73;;;2.40;99.90;;;;;;5081738;28;20180;-76
2022/01/21 08:37:04;;;;;;;2.87;1.10;;;2.40;99.90;;;;;;5089546;28;20183;-77
2022/01/21 08:39:30;;;;;;;5.30;0.97;;;2.50;99.90;;;;;;5072564;28;20201;-77
2022/01/21 08:41:56;;;;;;;5.27;1.00;;;2.50;99.90;;;;;;5062376;28;20200;-77
2022/01/21 08:44:22;;;;;;;4.27;1.07;;;2.50;99.90;;;;;;5072800;28;20557;-77
2022/01/21 08:46:47;;;;;;;3.00;1.50;;;2.60;99.90;;;;;;5065537;28;20220;-77
2022/01/21 08:49:13;;;;;;;4.37;1.03;;;2.50;99.90;;;;;;5082258;28;20649;-77
2022/01/21 08:51:48;;;;;;;3.47;1.00;;;2.50;99.90;;;;;;5083515;28;20193;-77
2022/01/21 08:54:17;;;;;;;4.90;0.90;;;2.60;99.90;;;;;;5089319;28;20185;-77
2022/01/21 08:56:44;;;;;;;6.10;1.10;;;2.60;99.90;;;;;;5079176;28;20231;-77
2022/01/21 08:59:10;;;;;;;3.90;0.90;;;2.60;99.90;;;;;;5080086;28;20170;-78
2022/01/21 09:01:36;;;;;;;3.07;0.77;;;2.60;99.90;;;;;;5081126;28;20180;-77
2022/01/21 09:04:01;;;;;;;4.57;0.80;;;2.60;99.90;;;;;;5090751;28;20236;-77
2022/01/21 09:06:29;;;;;;;3.53;1.13;;;2.60;99.90;;;;;;5080490;28;20169;-77
2022/01/21 09:08:59;;;;;;;4.73;1.10;;;2.60;99.90;;;;;;5081058;28;20220;-77
2022/01/21 09:11:25;;;;;;;6.00;1.00;;;2.50;99.90;;;;;;5088357;28;20582;-76
2022/01/21 09:13:51;;;;;;;6.07;1.00;;;2.50;99.90;;;;;;5084538;28;20923;-76
2022/01/21 09:16:18;;;;;;;6.33;1.07;;;2.50;99.90;;;;;;5089980;28;20185;-77
2022/01/21 09:18:49;;;;;;;10.50;1.90;;;2.50;99.90;;;;;;5084732;28;20186;-74
2022/01/21 09:21:18;;;;;;;3.57;0.90;;;2.50;99.90;;;;;;5079041;28;20197;-74
2022/01/21 09:23:47;;;;;;;4.70;1.20;;;2.60;99.90;;;;;;5081650;28;20283;-74
2022/01/21 09:26:13;;;;;;;11.53;1.63;;;2.60;99.90;;;;;;5088340;28;20655;-74
2022/01/21 09:28:39;;;;;;;5.37;1.33;;;2.60;99.90;;;;;;5082728;28;20186;-73
2022/01/21 09:31:05;;;;;;;5.53;1.20;;;2.60;99.90;;;;;;5082747;28;20214;-75
2022/01/21 09:33:33;;;;;;;7.20;1.10;;;2.70;99.90;;;;;;5089029;28;20183;-74
2022/01/21 09:35:58;;;;;;;8.63;1.27;;;2.80;99.90;;;;;;5077760;28;20185;-75
2022/01/21 09:38:25;;;;;;;7.10;1.57;;;2.80;99.90;;;;;;5078242;28;20182;-76
2022/01/21 09:40:51;;;;;;;6.20;1.53;;;2.90;99.90;;;;;;5069429;28;20201;-74
2022/01/21 09:43:19;;;;;;;6.63;1.23;;;3.00;99.90;;;;;;5082724;28;20201;-74
2022/01/21 09:45:53;;;;;;;7.07;1.23;;;3.00;99.90;;;;;;5083997;28;20181;-74
2022/01/21 09:48:27;;;;;;;5.90;1.40;;;3.10;99.90;;;;;;5080473;28;20164;-75
2022/01/21 09:50:56;;;;;;;7.87;1.37;;;3.10;99.90;;;;;;5079491;28;20201;-73
2022/01/21 09:53:26;;;;;;;9.13;1.30;;;3.20;99.90;;;;;;5078886;28;20193;-74
2022/01/21 09:55:54;;;;;;;9.53;2.17;;;3.30;99.90;;;;;;5072866;28;20184;-74
2022/01/21 09:58:21;;;;;;;8.53;1.53;;;3.40;99.90;;;;;;5081810;28;20181;-74
2022/01/21 10:00:46;;;;;;;7.40;1.40;;;3.40;99.90;;;;;;5082143;28;20202;-74
2022/01/21 10:03:12;;;;;;;5.80;1.30;;;3.40;99.90;;;;;;5079028;28;20243;-75
2022/01/21 10:05:39;;;;;;;10.07;1.17;;;3.50;99.90;;;;;;5078246;28;20684;-76
2022/01/21 10:08:07;;;;;;;5.97;1.13;;;3.50;99.90;;;;;;5093589;28;20184;-76
2022/01/21 10:10:33;;;;;;;12.20;0.97;;;3.50;99.90;;;;;;5079046;28;20204;-76
2022/01/21 10:13:02;;;;;;;7.60;1.00;;;3.50;99.90;;;;;;5085256;28;20185;-76
2022/01/21 10:15:29;;;;;;;12.27;1.43;;;3.60;99.90;;;;;;5083209;28;20178;-76
2022/01/21 10:18:07;;;;;;;6.63;1.20;;;3.60;99.90;;;;;;5086418;28;20268;-76
2022/01/21 10:20:32;;;;;;;9.00;1.73;;;3.70;99.90;;;;;;5080372;28;20195;-76
2022/01/21 10:23:01;;;;;;;10.53;1.80;;;3.70;99.90;;;;;;5084108;28;20693;-76
2022/01/21 10:25:27;;;;;;;7.63;1.50;;;3.80;99.90;;;;;;5082128;28;20171;-76
2022/01/21 10:28:08;;;;;;;8.80;1.67;;;3.80;99.90;;;;;;5089931;28;20177;-76
2022/01/21 10:30:34;;;;;;;6.90;1.23;;;3.80;99.90;;;;;;5088017;28;20207;-76
2022/01/21 10:32:59;;;;;;;5.87;1.37;;;3.90;99.90;;;;;;5090283;28;20189;-76
2022/01/21 10:35:30;;;;;;;6.73;1.87;;;3.90;99.90;;;;;;5076052;28;20175;-76
2022/01/21 10:38:13;;;;;;;11.00;1.47;;;3.90;99.90;;;;;;5075628;28;20217;-76
2022/01/21 10:40:38;;;;;;;11.80;3.03;;;3.90;99.90;;;;;;5074757;28;20198;-76
2022/01/21 10:43:15;;;;;;;6.97;1.30;;;3.90;99.90;;;;;;5079925;28;20692;-76
2022/01/21 10:45:53;;;;;;;4.77;1.47;;;4.00;99.90;;;;;;5077540;28;20175;-76
2022/01/21 10:48:19;;;;;;;8.47;1.40;;;4.10;99.90;;;;;;5074549;28;20192;-76
2022/01/21 10:50:45;;;;;;;6.67;1.77;;;4.20;99.90;;;;;;5076505;28;20201;-76
2022/01/21 10:53:29;;;;;;;9.80;1.63;;;4.30;99.90;;;;;;5080396;28;20178;-76
2022/01/21 10:56:10;;;;;;;7.80;1.77;;;4.30;99.90;;;;;;5081437;28;20191;-76
2022/01/21 10:58:40;;;;;;;9.43;1.70;;;4.30;99.90;;;;;;5077795;28;20167;-76
2022/01/21 11:01:11;;;;;;;8.20;1.30;;;4.30;99.90;;;;;;5074894;28;20202;-76
2022/01/21 11:03:54;;;;;;;6.50;1.43;;;4.30;99.90;;;;;;5082526;28;20241;-76
2022/01/21 11:06:23;;;;;;;10.03;1.53;;;4.30;99.90;;;;;;5081297;28;20182;-76
2022/01/21 11:08:49;;;;;;;6.87;1.57;;;4.30;99.90;;;;;;5084052;28;20647;-76
2022/01/21 11:11:22;;;;;;;5.73;1.63;;;4.40;99.90;;;;;;5086321;28;20202;-76
2022/01/21 11:13:47;;;;;;;5.73;1.27;;;4.40;99.90;;;;;;5083240;28;20175;-76
2022/01/21 11:16:20;;;;;;;6.17;1.50;;;4.40;99.90;;;;;;5086706;28;20185;-76
2022/01/21 11:19:07;;;;;;;8.90;1.60;;;4.40;99.90;;;;;;5083781;28;20181;-76
2022/01/21 11:21:56;;;;;;;7.53;1.90;;;4.40;99.90;;;;;;5084916;28;20196;-76
2022/01/21 11:24:24;;;;;;;3.67;1.30;;;4.50;99.90;;;;;;5080574;28;20276;-76
2022/01/21 11:27:19;;;;;;;5.47;1.83;;;4.50;99.90;;;;;;5083745;28;20183;-76
2022/01/21 11:29:46;;;;;;;9.13;1.53;;;4.50;99.90;;;;;;5072918;28;20220;-76
2022/01/21 11:32:14;;;;;;;11.60;1.50;;;4.60;99.90;;;;;;5081704;28;20194;-76
2022/01/21 11:34:42;;;;;;;8.30;1.70;;;4.60;99.90;;;;;;5080023;28;20178;-76
2022/01/21 11:37:08;;;;;;;9.40;1.50;;;4.60;99.90;;;;;;5087286;28;20182;-76
2022/01/21 11:39:35;;;;;;;8.00;1.63;;;4.60;99.90;;;;;;5083022;28;20695;-76
2022/01/21 11:42:04;;;;;;;4.73;1.53;;;4.70;99.90;;;;;;5087954;28;20174;-76
2022/01/21 11:44:30;;;;;;;9.10;1.47;;;4.70;99.90;;;;;;5089524;28;20269;-76
2022/01/21 11:47:03;;;;;;;11.90;1.80;;;4.70;99.90;;;;;;5078453;28;20193;-76
2022/01/21 11:49:30;;;;;;;9.97;1.70;;;4.70;99.90;;;;;;5069146;28;20199;-76
2022/01/21 11:52:14;;;;;;;7.33;1.57;;;4.70;99.90;;;;;;5075763;28;20269;-76
2022/01/21 11:54:41;;;;;;;8.57;1.43;;;4.80;99.90;;;;;;5071935;28;20274;-76
2022/01/21 11:57:07;;;;;;;5.43;1.57;;;4.80;99.90;;;;;;5077631;28;20185;-76
2022/01/21 12:02:21;;;;;;;15.80;2.23;;;4.80;99.90;;;;;;5077492;28;20182;-76
2022/01/21 12:04:51;;;;;;;12.83;1.57;;;4.80;99.90;;;;;;5070324;28;20198;-76
2022/01/21 12:07:41;;;;;;;12.33;1.70;;;4.80;99.90;;;;;;5071142;28;20178;-76
2022/01/21 12:10:16;;;;;;;15.43;2.00;;;4.80;99.90;;;;;;5082132;28;20194;-76
2022/01/21 12:12:45;;;;;;;12.27;2.13;;;4.80;99.90;;;;;;5082387;28;20181;-76
2022/01/21 12:15:21;;;;;;;10.97;1.83;;;4.80;99.90;;;;;;5080607;28;20712;-76
2022/01/21 12:17:52;;;;;;;8.33;1.47;;;4.90;99.90;;;;;;5077593;28;20265;-76
2022/01/21 12:20:18;;;;;;;13.10;1.93;;;4.90;99.90;;;;;;5077039;28;20194;-76
2022/01/21 12:23:03;;;;;;;8.53;2.17;;;4.90;99.90;;;;;;5079908;28;20198;-76
2022/01/21 12:25:29;;;;;;;17.77;3.20;;;4.90;99.90;;;;;;5077207;28;20259;-76
2022/01/21 12:28:14;;;;;;;8.40;2.03;;;4.90;99.90;;;;;;5077632;28;20251;-76
2022/01/21 12:30:52;;;;;;;6.97;1.67;;;4.90;99.90;;;;;;5078752;28;20224;-76
2022/01/21 12:33:18;;;;;;;10.23;2.53;;;5.00;99.90;;;;;;5077327;28;20182;-76
2022/01/21 12:35:46;;;;;;;7.90;1.73;;;5.00;99.90;;;;;;5080446;28;20178;-76
2022/01/21 12:40:56;;;;;;;9.67;1.80;;;5.00;99.90;;;;;;5082872;28;20194;-76
2022/01/21 12:43:57;;;;;;;14.13;2.07;;;5.00;99.90;;;;;;5081604;28;20286;-76
2022/01/21 12:46:22;;;;;;;6.33;1.80;;;5.00;99.90;;;;;;5083056;28;20250;-76
2022/01/21 12:48:49;;;;;;;9.70;1.87;;;5.00;99.90;;;;;;5086258;28;20231;-76
2022/01/21 12:51:22;;;;;;;15.13;3.43;;;5.10;99.90;;;;;;5087000;28;20605;-76
2022/01/21 12:56:55;;;;;;;10.57;1.77;;;5.10;99.90;;;;;;5083568;28;20196;-76
2022/01/21 12:59:26;;;;;;;12.97;2.30;;;5.10;99.90;;;;;;5084960;28;20206;-76
2022/01/21 13:01:53;;;;;;;10.40;1.47;;;5.10;99.90;;;;;;5079124;28;20179;-76
2022/01/21 13:04:28;;;;;;;7.27;1.60;;;5.20;99.90;;;;;;5073825;28;20255;-76
2022/01/21 13:07:01;;;;;;;7.77;2.10;;;5.10;99.90;;;;;;5067408;28;20181;-76
2022/01/21 13:09:55;;;;;;;10.10;2.20;;;5.20;99.90;;;;;;5074062;28;20265;-76
2022/01/21 13:12:24;;;;;;;10.30;3.30;;;5.10;99.90;;;;;;5068577;28;20187;-76
2022/01/21 13:14:55;;;;;;;12.63;1.90;;;5.10;99.90;;;;;;5072646;28;20214;-76
2022/01/21 13:17:21;;;;;;;10.20;1.73;;;5.10;99.90;;;;;;5080769;28;20255;-76
2022/01/21 13:19:55;;;;;;;19.33;2.97;;;5.10;99.90;;;;;;5076648;28;20288;-76
2022/01/21 13:22:29;;;;;;;7.03;1.73;;;5.10;99.90;;;;;;5072654;28;20212;-76
2022/01/21 13:25:06;;;;;;;13.43;2.10;;;5.10;99.90;;;;;;5076623;28;20258;-76
2022/01/21 13:27:42;;;;;;;12.13;2.13;;;5.20;99.90;;;;;;5071272;28;20175;-76
2022/01/21 13:30:10;;;;;;;11.27;1.77;;;5.20;99.90;;;;;;5078350;28;20193;-76
2022/01/21 13:32:37;;;;;;;9.00;2.07;;;5.10;99.90;;;;;;5085038;28;20247;-76
2022/01/21 13:35:24;;;;;;;4.97;1.37;;;5.10;99.90;;;;;;5083863;28;20175;-76
2022/01/21 13:38:07;;;;;;;5.37;1.50;;;5.20;99.90;;;;;;5078825;28;20209;-76
2022/01/21 13:40:37;;;;;;;7.40;1.40;;;5.20;99.90;;;;;;5077616;28;20263;-76
2022/01/21 13:43:09;;;;;;;9.77;1.80;;;5.20;99.90;;;;;;5086549;28;20308;-76
2022/01/21 13:45:35;;;;;;;11.63;2.20;;;5.20;99.90;;;;;;5085127;28;20174;-76
2022/01/21 13:48:08;;;;;;;10.03;1.87;;;5.20;99.90;;;;;;5083268;28;20185;-76
2022/01/21 13:50:35;;;;;;;11.03;1.80;;;5.20;99.90;;;;;;5077607;28;20800;-76
2022/01/21 13:53:06;;;;;;;14.50;2.07;;;5.20;99.90;;;;;;5081300;28;20201;-76
2022/01/21 13:55:38;;;;;;;8.53;1.50;;;5.20;99.90;;;;;;5071426;28;20179;-76
2022/01/21 13:58:06;;;;;;;12.27;1.70;;;5.20;99.90;;;;;;5078758;28;20179;-76